createdAt,value
2023-07-07T00:03:32.211Z,98441.28
2023-07-07T00:05:58.946Z,98429.22
2023-07-07T00:08:25.829Z,98437.88
2023-07-07T00:10:53.612Z,98428.66
2023-07-07T00:13:21.583Z,98433.75
2023-07-07T00:15:48.433Z,98441.91
2023-07-07T00:18:27.559Z,98443.38
2023-07-07T00:21:00.510Z,98434.91
2023-07-07T00:23:30.874Z,98433.91
2023-07-07T00:26:09.647Z,98435.75
2023-07-07T00:28:37.089Z,98438.16
2023-07-07T00:31:06.309Z,98445.69
2023-07-07T00:33:33.258Z,98449.59
2023-07-07T00:36:00.610Z,98445.13
2023-07-07T00:38:27.690Z,98437.22
2023-07-07T00:40:54.723Z,98445.28
2023-07-07T00:43:23.444Z,98452.81
2023-07-07T00:45:50.852Z,98442.94
2023-07-07T00:48:22.306Z,98447.28
2023-07-07T00:50:56.175Z,98454.38
2023-07-07T00:53:25.119Z,98452.66
2023-07-07T00:55:57.627Z,98450.75
2023-07-07T00:58:27.135Z,98449.63
2023-07-07T01:01:02.170Z,98452.94
2023-07-07T01:03:38.719Z,98450.25
2023-07-07T01:06:09.317Z,98459.25
2023-07-07T01:08:37.768Z,98454.78
2023-07-07T01:11:05.422Z,98452.50
2023-07-07T01:13:32.740Z,98460.13
2023-07-07T01:16:32.133Z,98458.72
2023-07-07T01:19:18.065Z,98461.94
2023-07-07T01:21:54.765Z,98460.03
2023-07-07T01:24:33.429Z,98465.06
2023-07-07T01:27:21.611Z,98461.94
2023-07-07T01:30:19.486Z,98460.44
2023-07-07T01:32:47.155Z,98465.69
2023-07-07T01:35:33.057Z,98468.13
2023-07-07T01:38:40.906Z,98465.06
2023-07-07T01:41:15.794Z,98465.16
2023-07-07T01:44:03.336Z,98463.25
2023-07-07T01:46:58.424Z,98465.69
2023-07-07T01:49:54.680Z,98463.81
2023-07-07T01:52:21.426Z,98461.56
2023-07-07T01:54:56.253Z,98462.56
2023-07-07T01:57:25.841Z,98468.00
2023-07-07T02:00:08.888Z,98465.91
2023-07-07T02:02:44.310Z,98462.25
2023-07-07T02:05:12.735Z,98462.50
2023-07-07T02:07:40.946Z,98466.28
2023-07-07T02:10:08.187Z,98468.75
2023-07-07T02:12:36.218Z,98474.41
2023-07-07T02:15:04.097Z,98467.13
2023-07-07T02:17:31.816Z,98474.19
2023-07-07T02:19:58.657Z,98476.84
2023-07-07T02:22:26.145Z,98476.00
2023-07-07T02:24:52.988Z,98464.00
2023-07-07T02:27:20.553Z,98467.13
2023-07-07T02:29:47.493Z,98467.22
2023-07-07T02:32:16.150Z,98473.09
2023-07-07T02:34:49.083Z,98467.59
2023-07-07T02:37:19.909Z,98466.38
2023-07-07T02:39:47.277Z,98484.19
2023-07-07T02:42:14.857Z,98480.44
2023-07-07T02:44:42.300Z,98476.28
2023-07-07T02:47:10.172Z,98475.59
2023-07-07T02:49:37.602Z,98471.34
2023-07-07T02:52:06.081Z,98478.81
2023-07-07T02:54:33.342Z,98465.31
2023-07-07T02:57:00.388Z,98475.69
2023-07-07T02:59:27.457Z,98479.06
2023-07-07T03:01:54.229Z,98469.22
2023-07-07T03:04:21.634Z,98478.25
2023-07-07T03:06:49.028Z,98485.13
2023-07-07T03:09:16.000Z,98483.16
2023-07-07T03:11:46.082Z,98491.59
2023-07-07T03:14:16.951Z,98492.03
2023-07-07T03:16:48.379Z,98496.75
2023-07-07T03:19:21.173Z,98502.78
2023-07-07T03:22:06.197Z,98504.72
2023-07-07T03:24:54.864Z,98510.47
2023-07-07T03:27:31.094Z,98512.59
2023-07-07T03:29:58.544Z,98505.97
2023-07-07T03:32:26.219Z,98506.53
2023-07-07T03:35:00.190Z,98510.31
2023-07-07T03:37:29.131Z,98504.66
2023-07-07T03:39:56.544Z,98508.34
2023-07-07T03:42:23.359Z,98516.28
2023-07-07T03:44:50.696Z,98522.63
2023-07-07T03:47:19.109Z,98519.97
2023-07-07T03:49:46.066Z,98524.94
2023-07-07T03:52:14.117Z,98518.38
2023-07-07T03:54:42.043Z,98519.38
2023-07-07T03:57:12.056Z,98523.63
2023-07-07T03:59:39.161Z,98527.66
2023-07-07T04:02:07.183Z,98519.06
2023-07-07T04:04:34.138Z,98527.53
2023-07-07T04:07:04.078Z,98527.94
2023-07-07T04:09:31.741Z,98534.84
2023-07-07T04:11:58.527Z,98528.09
2023-07-07T04:14:29.801Z,98540.03
2023-07-07T04:16:56.649Z,98541.44
2023-07-07T04:19:23.571Z,98541.59
2023-07-07T04:21:50.934Z,98543.97
2023-07-07T04:24:21.429Z,98548.91
2023-07-07T04:26:48.464Z,98547.53
2023-07-07T04:29:15.424Z,98546.84
2023-07-07T04:31:46.886Z,98532.78
2023-07-07T04:34:16.039Z,98540.84
2023-07-07T04:36:45.725Z,98546.56
2023-07-07T04:39:13.337Z,98550.25
2023-07-07T04:41:40.137Z,98548.88
2023-07-07T04:44:07.029Z,98554.59
2023-07-07T04:46:36.814Z,98566.00
2023-07-07T04:49:09.069Z,98564.66
2023-07-07T04:51:41.499Z,98562.94
2023-07-07T04:54:16.006Z,98566.38
2023-07-07T04:56:45.760Z,98560.53
2023-07-07T04:59:12.547Z,98569.72
2023-07-07T05:01:40.230Z,98570.50
2023-07-07T05:04:08.643Z,98566.41
2023-07-07T05:06:38.914Z,98562.38
2023-07-07T05:09:11.159Z,98569.56
2023-07-07T05:11:38.308Z,98570.72
2023-07-07T05:14:05.373Z,98560.72
2023-07-07T05:16:38.637Z,98570.81
2023-07-07T05:19:07.036Z,98563.47
2023-07-07T05:21:33.974Z,98565.03
2023-07-07T05:24:01.052Z,98571.03
2023-07-07T05:26:28.851Z,98575.44
2023-07-07T05:29:02.005Z,98568.97
2023-07-07T05:31:29.178Z,98569.63
2023-07-07T05:33:56.045Z,98564.06
2023-07-07T05:36:23.104Z,98568.91
2023-07-07T05:38:51.403Z,98570.09
2023-07-07T05:41:18.263Z,98575.47
2023-07-07T05:43:45.240Z,98577.25
2023-07-07T05:46:14.793Z,98578.72
2023-07-07T05:48:42.983Z,98579.94
2023-07-07T05:51:13.941Z,98583.50
2023-07-07T05:53:42.189Z,98584.34
2023-07-07T05:56:13.687Z,98590.09
2023-07-07T05:58:43.224Z,98585.75
2023-07-07T06:01:11.563Z,98592.97
2023-07-07T06:03:40.462Z,98601.13
2023-07-07T06:06:08.592Z,98594.94
2023-07-07T06:08:35.698Z,98599.25
2023-07-07T06:11:03.028Z,98602.19
2023-07-07T06:13:30.097Z,98603.56
2023-07-07T06:15:57.454Z,98608.88
2023-07-07T06:18:24.624Z,98605.34
2023-07-07T06:20:54.010Z,98610.69
2023-07-07T06:23:21.637Z,98614.69
2023-07-07T06:25:49.236Z,98611.31
2023-07-07T06:28:17.419Z,98621.22
2023-07-07T06:30:44.856Z,98618.69
2023-07-07T06:33:11.752Z,98623.34
2023-07-07T06:35:38.576Z,98626.06
2023-07-07T06:38:06.467Z,98626.34
2023-07-07T06:40:33.378Z,98624.84
2023-07-07T06:43:00.229Z,98633.88
2023-07-07T06:45:27.225Z,98629.63
2023-07-07T06:47:55.006Z,98628.41
2023-07-07T06:50:33.395Z,98629.84
2023-07-07T06:53:00.372Z,98625.94
2023-07-07T06:55:27.487Z,98628.59
2023-07-07T06:57:54.356Z,98632.63
2023-07-07T07:00:22.478Z,98627.78
2023-07-07T07:02:49.922Z,98630.25
2023-07-07T07:05:17.105Z,98634.56
2023-07-07T07:07:43.906Z,98629.31
2023-07-07T07:10:11.980Z,98628.84
2023-07-07T07:12:38.836Z,98633.41
2023-07-07T07:15:06.472Z,98639.44
2023-07-07T07:17:36.081Z,98629.63
2023-07-07T07:20:05.713Z,98639.03
2023-07-07T07:22:32.534Z,98638.75
2023-07-07T07:24:59.447Z,98634.50
2023-07-07T07:27:26.737Z,98638.41
2023-07-07T07:29:53.661Z,98628.59
2023-07-07T07:32:20.412Z,98635.69
2023-07-07T07:34:47.415Z,98643.97
2023-07-07T07:37:15.816Z,98633.66
2023-07-07T07:39:43.205Z,98633.09
2023-07-07T07:42:10.920Z,98632.81
2023-07-07T07:44:37.918Z,98630.06
2023-07-07T07:47:05.076Z,98630.31
2023-07-07T07:49:31.932Z,98641.16
2023-07-07T07:51:58.726Z,98627.66
2023-07-07T07:54:26.550Z,98630.97
2023-07-07T07:56:53.577Z,98628.09
2023-07-07T07:59:21.064Z,98632.59
2023-07-07T08:01:48.119Z,98635.69
2023-07-07T08:04:15.075Z,98636.88
2023-07-07T08:06:43.814Z,98640.63
2023-07-07T08:09:12.447Z,98637.47
2023-07-07T08:11:42.872Z,98641.34
2023-07-07T08:14:19.772Z,98642.44
2023-07-07T08:16:47.936Z,98629.00
2023-07-07T08:19:18.155Z,98635.56
2023-07-07T08:21:47.197Z,98632.84
2023-07-07T08:24:14.313Z,98635.09
2023-07-07T08:26:41.924Z,98633.63
2023-07-07T08:29:24.694Z,98638.34
2023-07-07T08:31:52.625Z,98634.25
2023-07-07T08:34:19.916Z,98639.16
2023-07-07T08:36:48.887Z,98637.16
2023-07-07T08:39:23.551Z,98630.56
2023-07-07T08:41:53.911Z,98636.31
2023-07-07T08:44:23.994Z,98635.69
2023-07-07T08:46:54.488Z,98634.09
2023-07-07T08:49:33.039Z,98632.16
2023-07-07T08:52:16.471Z,98626.81
2023-07-07T08:55:07.807Z,98627.59
2023-07-07T08:57:45.535Z,98620.78
2023-07-07T09:00:22.056Z,98637.16
2023-07-07T09:03:15.023Z,98634.13
2023-07-07T09:05:57.665Z,98630.00
2023-07-07T09:08:41.603Z,98632.66
2023-07-07T09:11:15.870Z,98628.25
2023-07-07T09:13:46.029Z,98625.53
2023-07-07T09:16:27.630Z,98628.69
2023-07-07T09:19:21.376Z,98624.47
2023-07-07T09:22:05.181Z,98632.28
2023-07-07T09:24:59.184Z,98621.34
2023-07-07T09:27:36.006Z,98629.81
2023-07-07T09:30:20.706Z,98623.81
2023-07-07T09:32:50.026Z,98625.81
2023-07-07T09:35:20.292Z,98633.50
2023-07-07T09:38:21.044Z,98630.59
2023-07-07T09:41:25.664Z,98637.22
2023-07-07T09:44:15.980Z,98625.34
2023-07-07T09:47:00.190Z,98633.25
2023-07-07T09:49:52.739Z,98631.28
2023-07-07T09:52:37.975Z,98629.97
2023-07-07T09:55:23.314Z,98630.84
2023-07-07T09:58:05.074Z,98629.31
2023-07-07T10:00:45.266Z,98629.00
2023-07-07T10:03:36.894Z,98621.53
2023-07-07T10:06:08.261Z,98624.91
2023-07-07T10:08:35.108Z,98633.97
2023-07-07T10:13:53.017Z,98628.19
2023-07-07T10:16:31.949Z,98629.75
2023-07-07T10:19:01.821Z,98626.44
2023-07-07T10:21:29.113Z,98624.44
2023-07-07T10:23:55.960Z,98627.78
2023-07-07T10:26:23.958Z,98622.66
2023-07-07T10:28:54.271Z,98627.03
2023-07-07T10:31:21.139Z,98629.16
2023-07-07T10:33:52.223Z,98630.09
2023-07-07T10:36:19.372Z,98627.31
2023-07-07T10:38:56.136Z,98627.34
2023-07-07T10:41:28.500Z,98632.28
2023-07-07T10:43:56.030Z,98632.91
2023-07-07T10:46:23.092Z,98631.47
2023-07-07T10:48:53.870Z,98628.63
2023-07-07T10:51:20.830Z,98629.41
2023-07-07T10:53:51.358Z,98622.19
2023-07-07T10:56:31.713Z,98629.97
2023-07-07T10:59:17.193Z,98627.19
2023-07-07T11:02:25.752Z,98610.59
2023-07-07T11:04:55.904Z,98616.78
2023-07-07T11:07:26.062Z,98618.34
2023-07-07T11:09:57.043Z,98620.81
2023-07-07T11:12:51.814Z,98616.34
2023-07-07T11:15:39.594Z,98610.94
2023-07-07T11:18:13.077Z,98611.81
2023-07-07T11:21:00.915Z,98609.72
2023-07-07T11:23:36.700Z,98610.59
2023-07-07T11:26:19.275Z,98607.81
2023-07-07T11:29:09.500Z,98604.31
2023-07-07T11:32:25.647Z,98613.47
2023-07-07T11:35:11.963Z,98601.00
2023-07-07T11:37:58.833Z,98606.22
2023-07-07T11:40:33.563Z,98596.66
2023-07-07T11:43:03.484Z,98597.75
2023-07-07T11:45:35.153Z,98595.53
2023-07-07T11:48:21.158Z,98596.59
2023-07-07T11:51:20.781Z,98601.56
2023-07-07T11:54:15.311Z,98591.00
2023-07-07T11:57:27.216Z,98593.03
2023-07-07T12:00:12.309Z,98594.38
2023-07-07T12:02:55.161Z,98591.63
2023-07-07T12:05:30.974Z,98588.97
2023-07-07T12:08:16.612Z,98584.38
2023-07-07T12:10:53.230Z,98591.31
2023-07-07T12:13:26.764Z,98577.38
2023-07-07T12:16:06.845Z,98581.44
2023-07-07T12:18:37.640Z,98582.28
2023-07-07T12:21:11.438Z,98574.56
2023-07-07T12:23:42.102Z,98568.38
2023-07-07T12:26:27.847Z,98564.22
2023-07-07T12:29:00.434Z,98568.09
2023-07-07T12:31:29.448Z,98570.69
2023-07-07T12:33:56.959Z,98565.16
2023-07-07T12:36:29.856Z,98567.84
2023-07-07T12:39:01.048Z,98562.63
2023-07-07T12:41:30.252Z,98568.31
2023-07-07T12:44:03.915Z,98561.34
2023-07-07T12:46:34.055Z,98558.50
2023-07-07T12:49:08.076Z,98563.50
2023-07-07T12:51:38.672Z,98556.28
2023-07-07T12:54:05.862Z,98564.06
2023-07-07T12:56:32.967Z,98556.34
2023-07-07T12:59:02.759Z,98558.56
2023-07-07T13:01:35.317Z,98549.03
2023-07-07T13:04:12.436Z,98557.63
2023-07-07T13:06:41.497Z,98555.56
2023-07-07T13:09:12.579Z,98557.63
2023-07-07T13:11:44.898Z,98553.69
2023-07-07T13:14:30.715Z,98542.97
2023-07-07T13:17:03.780Z,98543.38
2023-07-07T13:19:34.083Z,98540.44
2023-07-07T13:22:11.082Z,98546.56
2023-07-07T13:24:43.940Z,98540.47
2023-07-07T13:27:22.759Z,98536.69
2023-07-07T13:29:56.506Z,98537.75
2023-07-07T13:32:27.401Z,98545.00
2023-07-07T13:34:54.918Z,98543.34
2023-07-07T13:37:22.055Z,98538.09
2023-07-07T13:39:49.123Z,98529.91
2023-07-07T13:42:30.740Z,98531.63
2023-07-07T13:45:04.360Z,98524.72
2023-07-07T13:47:34.251Z,98524.78
2023-07-07T13:50:07.261Z,98529.13
2023-07-07T13:52:36.355Z,98526.78
2023-07-07T13:55:03.612Z,98516.69
2023-07-07T13:57:33.822Z,98528.78
2023-07-07T14:00:09.050Z,98529.41
2023-07-07T14:02:45.926Z,98523.41
2023-07-07T14:05:18.793Z,98520.94
2023-07-07T14:07:47.606Z,98524.66
2023-07-07T14:10:28.940Z,98518.19
2023-07-07T14:12:57.409Z,98505.41
2023-07-07T14:15:45.015Z,98518.19
2023-07-07T14:18:13.433Z,98511.72
2023-07-07T14:20:50.430Z,98503.53
2023-07-07T14:23:19.084Z,98511.03
2023-07-07T14:25:48.180Z,98517.25
2023-07-07T14:28:21.551Z,98506.06
2023-07-07T14:30:51.168Z,98508.28
2023-07-07T14:33:25.825Z,98509.94
2023-07-07T14:36:01.109Z,98495.19
2023-07-07T14:38:36.729Z,98500.25
2023-07-07T14:41:12.375Z,98496.00
2023-07-07T14:43:44.650Z,98494.41
2023-07-07T14:46:24.557Z,98492.00
2023-07-07T14:48:54.430Z,98489.56
2023-07-07T14:51:34.574Z,98486.13
2023-07-07T14:54:05.083Z,98492.25
2023-07-07T14:56:38.040Z,98492.94
2023-07-07T14:59:19.650Z,98489.44
2023-07-07T15:01:56.865Z,98492.41
2023-07-07T15:04:29.922Z,98489.06
2023-07-07T15:06:56.868Z,98475.97
2023-07-07T15:09:24.708Z,98480.94
2023-07-07T15:11:52.800Z,98481.13
2023-07-07T15:14:19.596Z,98483.81
2023-07-07T15:16:48.515Z,98475.44
2023-07-07T15:19:18.104Z,98482.25
2023-07-07T15:21:45.902Z,98480.53
2023-07-07T15:24:13.045Z,98475.84
2023-07-07T15:26:41.844Z,98478.53
2023-07-07T15:29:18.727Z,98466.50
2023-07-07T15:31:50.190Z,98466.44
2023-07-07T15:34:17.535Z,98470.38
2023-07-07T15:36:44.468Z,98464.25
2023-07-07T15:39:13.814Z,98459.50
2023-07-07T15:41:41.407Z,98461.16
2023-07-07T15:44:08.335Z,98466.19
2023-07-07T15:46:44.386Z,98462.63
2023-07-07T15:49:17.577Z,98457.03
2023-07-07T15:51:46.788Z,98455.66
2023-07-07T15:54:14.010Z,98461.44
2023-07-07T15:56:44.217Z,98461.72
2023-07-07T15:59:25.146Z,98447.66
2023-07-07T16:01:54.340Z,98458.34
2023-07-07T16:04:22.965Z,98460.91
2023-07-07T16:06:54.121Z,98462.94
2023-07-07T16:09:24.082Z,98454.78
2023-07-07T16:11:51.367Z,98448.78
2023-07-07T16:14:18.112Z,98450.13
2023-07-07T16:16:47.758Z,98453.75
2023-07-07T16:19:17.352Z,98454.38
2023-07-07T16:21:44.740Z,98461.75
2023-07-07T16:24:11.846Z,98456.22
2023-07-07T16:26:40.558Z,98460.66
2023-07-07T16:29:13.962Z,98451.19
2023-07-07T16:31:41.326Z,98452.13
2023-07-07T16:34:08.271Z,98445.25
2023-07-07T16:36:35.521Z,98447.38
2023-07-07T16:39:02.663Z,98448.25
2023-07-07T16:41:30.189Z,98450.56
2023-07-07T16:43:59.714Z,98448.34
2023-07-07T16:46:27.425Z,98448.50
2023-07-07T16:48:54.898Z,98457.38
2023-07-07T16:51:24.732Z,98436.78
2023-07-07T16:53:52.143Z,98447.22
2023-07-07T16:56:26.854Z,98442.09
2023-07-07T16:58:54.874Z,98445.13
2023-07-07T17:01:22.760Z,98449.50
2023-07-07T17:03:49.908Z,98451.09
2023-07-07T17:06:26.288Z,98446.16
2023-07-07T17:08:58.050Z,98434.34
2023-07-07T17:11:27.727Z,98448.16
2023-07-07T17:13:55.241Z,98440.16
2023-07-07T17:16:23.785Z,98450.03
2023-07-07T17:18:54.464Z,98436.25
2023-07-07T17:21:23.771Z,98444.28
2023-07-07T17:23:51.644Z,98449.78
2023-07-07T17:26:27.142Z,98447.00
2023-07-07T17:28:55.525Z,98454.72
2023-07-07T17:31:26.932Z,98450.56
2023-07-07T17:33:56.364Z,98449.22
2023-07-07T17:36:27.809Z,98456.34
2023-07-07T17:38:57.225Z,98454.31
2023-07-07T17:41:30.251Z,98450.47
2023-07-07T17:43:57.357Z,98448.31
2023-07-07T17:46:33.856Z,98448.59
2023-07-07T17:49:06.394Z,98449.38
2023-07-07T17:51:35.756Z,98445.47
2023-07-07T17:54:02.762Z,98452.50
2023-07-07T17:56:33.373Z,98455.13
2023-07-07T17:59:01.506Z,98456.47
2023-07-07T18:01:29.205Z,98449.88
2023-07-07T18:03:56.593Z,98456.69
2023-07-07T18:06:28.575Z,98457.31
2023-07-07T18:08:56.733Z,98455.16
2023-07-07T18:11:26.598Z,98451.84
2023-07-07T18:13:54.236Z,98454.06
2023-07-07T18:16:29.589Z,98450.06
2023-07-07T18:19:16.151Z,98451.66
2023-07-07T18:21:52.361Z,98452.16
2023-07-07T18:24:23.438Z,98452.09
2023-07-07T18:26:50.492Z,98452.75
2023-07-07T18:29:23.666Z,98458.31
2023-07-07T18:31:51.037Z,98459.28
2023-07-07T18:34:18.099Z,98452.81
2023-07-07T18:36:49.050Z,98465.25
2023-07-07T18:39:22.730Z,98470.47
2023-07-07T18:41:52.714Z,98471.34
2023-07-07T18:44:21.443Z,98460.34
2023-07-07T18:46:48.977Z,98471.78
2023-07-07T18:49:17.815Z,98472.59
2023-07-07T18:51:47.572Z,98470.47
2023-07-07T18:54:16.467Z,98471.13
2023-07-07T18:56:47.655Z,98469.13
2023-07-07T18:59:22.640Z,98472.66
2023-07-07T19:01:50.370Z,98483.41
2023-07-07T19:04:17.493Z,98472.06
2023-07-07T19:06:46.135Z,98474.44
2023-07-07T19:09:23.020Z,98485.19
2023-07-07T19:11:54.143Z,98483.13
2023-07-07T19:14:21.698Z,98481.56
2023-07-07T19:16:52.151Z,98483.13
2023-07-07T19:19:27.563Z,98491.00
2023-07-07T19:21:54.907Z,98491.63
2023-07-07T19:24:22.526Z,98489.81
2023-07-07T19:26:53.770Z,98498.66
2023-07-07T19:29:20.703Z,98499.75
2023-07-07T19:31:48.079Z,98491.81
2023-07-07T19:34:14.953Z,98500.13
2023-07-07T19:36:43.609Z,98510.25
2023-07-07T19:39:22.154Z,98503.59
2023-07-07T19:41:50.969Z,98500.03
2023-07-07T19:44:20.300Z,98502.47
2023-07-07T19:46:47.546Z,98501.94
2023-07-07T19:49:19.039Z,98507.38
2023-07-07T19:51:46.982Z,98512.69
2023-07-07T19:54:14.160Z,98519.22
2023-07-07T19:56:41.071Z,98517.81
2023-07-07T19:59:13.370Z,98514.91
2023-07-07T20:01:40.442Z,98514.22
2023-07-07T20:04:07.390Z,98513.38
2023-07-07T20:06:41.871Z,98520.72
2023-07-07T20:09:21.287Z,98515.94
2023-07-07T20:11:49.412Z,98513.66
2023-07-07T20:14:16.858Z,98514.28
2023-07-07T20:16:51.099Z,98508.16
2023-07-07T20:19:21.958Z,98511.91
2023-07-07T20:21:50.265Z,98512.94
2023-07-07T20:24:27.285Z,98514.34
2023-07-07T20:26:59.293Z,98517.84
2023-07-07T20:29:31.010Z,98515.47
2023-07-07T20:31:57.987Z,98512.75
2023-07-07T20:34:25.536Z,98516.03
2023-07-07T20:36:52.357Z,98508.44
2023-07-07T20:39:21.605Z,98512.56
2023-07-07T20:41:49.874Z,98511.16
2023-07-07T20:44:17.643Z,98514.03
2023-07-07T20:46:46.685Z,98516.56
2023-07-07T20:49:19.531Z,98521.50
2023-07-07T20:51:47.806Z,98514.06
2023-07-07T20:54:15.169Z,98520.03
2023-07-07T20:56:42.382Z,98512.09
2023-07-07T20:59:25.883Z,98514.56
2023-07-07T21:01:56.096Z,98523.16
2023-07-07T21:04:23.390Z,98513.97
2023-07-07T21:06:52.650Z,98518.31
2023-07-07T21:09:19.784Z,98513.94
2023-07-07T21:11:46.853Z,98516.44
2023-07-07T21:14:14.074Z,98514.34
2023-07-07T21:16:45.793Z,98516.84
2023-07-07T21:19:13.090Z,98516.84
2023-07-07T21:21:40.969Z,98514.56
2023-07-07T21:24:08.534Z,98519.56
2023-07-07T21:26:36.491Z,98518.31
2023-07-07T21:29:04.012Z,98523.91
2023-07-07T21:31:31.676Z,98519.50
2023-07-07T21:34:00.718Z,98524.75
2023-07-07T21:36:34.163Z,98518.81
2023-07-07T21:39:27.546Z,98514.34
2023-07-07T21:42:10.805Z,98523.69
2023-07-07T21:44:41.358Z,98519.00
2023-07-07T21:47:17.378Z,98519.16
2023-07-07T21:49:45.981Z,98519.06
2023-07-07T21:52:16.039Z,98525.84
2023-07-07T21:54:43.417Z,98525.69
2023-07-07T21:57:37.587Z,98518.25
2023-07-07T22:00:13.031Z,98526.88
2023-07-07T22:02:41.852Z,98522.28
2023-07-07T22:05:11.313Z,98528.72
2023-07-07T22:07:38.489Z,98525.06
2023-07-07T22:10:28.977Z,98525.38
2023-07-07T22:12:57.103Z,98526.00
2023-07-07T22:15:24.156Z,98527.47
2023-07-07T22:17:51.586Z,98525.59
2023-07-07T22:20:39.325Z,98532.22
2023-07-07T22:23:09.687Z,98532.78
2023-07-07T22:25:36.823Z,98523.00
2023-07-07T22:28:10.736Z,98523.25
2023-07-07T22:30:41.633Z,98520.56
2023-07-07T22:33:13.423Z,98520.38
2023-07-07T22:35:40.580Z,98513.59
2023-07-07T22:38:28.427Z,98517.53
2023-07-07T22:40:58.372Z,98522.03
2023-07-07T22:43:27.909Z,98514.31
2023-07-07T22:46:01.400Z,98516.88
2023-07-07T22:48:29.471Z,98510.63
2023-07-07T22:50:57.612Z,98509.47
2023-07-07T22:53:25.017Z,98505.44
2023-07-07T22:55:53.179Z,98497.50
2023-07-07T22:58:22.236Z,98495.50
2023-07-07T23:00:49.982Z,98499.28
2023-07-07T23:03:17.401Z,98495.03
2023-07-07T23:05:46.715Z,98490.09
2023-07-07T23:08:26.300Z,98488.34
2023-07-07T23:10:53.955Z,98484.44
2023-07-07T23:13:21.130Z,98491.38
2023-07-07T23:15:48.716Z,98501.25
2023-07-07T23:18:17.129Z,98487.91
2023-07-07T23:20:44.314Z,98486.22
2023-07-07T23:23:21.776Z,98488.22
2023-07-07T23:25:58.029Z,98490.28
2023-07-07T23:28:27.859Z,98489.22
2023-07-07T23:31:05.866Z,98486.47
2023-07-07T23:33:36.873Z,98486.63
2023-07-07T23:36:19.574Z,98493.25
2023-07-07T23:38:47.187Z,98487.41
2023-07-07T23:41:14.550Z,98482.06
2023-07-07T23:43:42.259Z,98481.69
2023-07-07T23:46:11.784Z,98478.53
2023-07-07T23:48:38.757Z,98476.03
2023-07-07T23:51:05.803Z,98488.91
2023-07-07T23:53:32.694Z,98486.81
2023-07-07T23:55:59.636Z,98497.09
2023-07-07T23:58:28.800Z,98493.03
